createdAt,value
2019-03-30T00:00:15.796Z,11.12
2019-03-30T00:01:15.876Z,11.06
2019-03-30T00:02:15.830Z,11.06
2019-03-30T00:03:15.834Z,11
2019-03-30T00:04:15.786Z,11
2019-03-30T00:05:15.828Z,11
2019-03-30T00:06:15.793Z,11
2019-03-30T00:07:15.815Z,10.94
2019-03-30T00:08:15.779Z,10.94
2019-03-30T00:09:15.907Z,11
2019-03-30T00:10:15.768Z,10.94
2019-03-30T00:11:15.839Z,10.94
2019-03-30T00:12:15.851Z,10.94
2019-03-30T00:13:15.780Z,10.88
2019-03-30T00:14:15.858Z,10.88
2019-03-30T00:15:15.824Z,10.88
2019-03-30T00:16:15.802Z,10.88
2019-03-30T00:17:15.777Z,10.88
2019-03-30T00:18:15.836Z,10.88
2019-03-30T00:19:15.770Z,10.81
2019-03-30T00:20:15.802Z,10.81
2019-03-30T00:21:15.756Z,10.81
2019-03-30T00:22:15.861Z,10.81
2019-03-30T00:23:15.791Z,10.75
2019-03-30T00:24:17.209Z,10.75
2019-03-30T00:25:15.819Z,10.69
2019-03-30T00:26:15.870Z,10.69
2019-03-30T00:27:15.750Z,10.69
2019-03-30T00:28:15.784Z,10.69
2019-03-30T00:29:16.026Z,10.63
2019-03-30T00:30:19.620Z,10.69
2019-03-30T00:31:15.797Z,10.63
2019-03-30T00:32:15.833Z,10.56
2019-03-30T00:33:15.734Z,10.63
2019-03-30T00:34:15.791Z,10.63
2019-03-30T00:35:15.841Z,10.63
2019-03-30T00:36:15.747Z,10.63
2019-03-30T00:37:16.646Z,10.63
2019-03-30T00:38:15.740Z,10.63
2019-03-30T00:39:15.750Z,10.63
2019-03-30T00:40:15.811Z,10.56
2019-03-30T00:41:15.818Z,10.56
2019-03-30T00:42:15.805Z,10.56
2019-03-30T00:43:15.802Z,10.56
2019-03-30T00:44:15.730Z,10.56
2019-03-30T00:45:15.774Z,10.5
2019-03-30T00:46:15.792Z,10.56
2019-03-30T00:47:15.742Z,10.5
2019-03-30T00:48:15.763Z,10.5
2019-03-30T00:49:15.736Z,10.56
2019-03-30T00:50:15.919Z,10.5
2019-03-30T00:51:15.722Z,10.5
2019-03-30T00:52:15.751Z,10.5
2019-03-30T00:53:15.788Z,10.5
2019-03-30T00:54:15.734Z,10.5
2019-03-30T00:55:15.813Z,10.5
2019-03-30T00:56:15.800Z,10.5
2019-03-30T00:57:15.730Z,10.5
2019-03-30T00:58:15.728Z,10.5
2019-03-30T00:59:15.833Z,10.5
2019-03-30T01:00:15.770Z,10.5
2019-03-30T01:01:15.872Z,10.5
2019-03-30T01:02:15.745Z,10.5
2019-03-30T01:03:15.768Z,10.5
2019-03-30T01:04:15.709Z,10.5
2019-03-30T01:05:15.809Z,10.5
2019-03-30T01:06:15.689Z,10.44
2019-03-30T01:07:15.690Z,10.5
2019-03-30T01:08:15.756Z,10.44
2019-03-30T01:09:15.684Z,10.44
2019-03-30T01:10:15.729Z,10.44
2019-03-30T01:11:15.755Z,10.44
2019-03-30T01:12:15.784Z,10.38
2019-03-30T01:13:15.795Z,10.38
2019-03-30T01:14:15.689Z,10.38
2019-03-30T01:15:15.681Z,10.38
2019-03-30T01:16:15.833Z,10.38
2019-03-30T01:17:15.708Z,10.31
2019-03-30T01:18:15.698Z,10.38
2019-03-30T01:19:15.694Z,10.31
2019-03-30T01:20:15.713Z,10.38
2019-03-30T01:21:15.743Z,10.38
2019-03-30T01:22:15.883Z,10.31
2019-03-30T01:23:15.702Z,10.31
2019-03-30T01:24:15.702Z,10.31
2019-03-30T01:25:15.881Z,10.31
2019-03-30T01:26:15.688Z,10.31
2019-03-30T01:27:15.722Z,10.31
2019-03-30T01:28:15.687Z,10.31
2019-03-30T01:29:15.672Z,10.31
2019-03-30T01:30:23.929Z,10.25
2019-03-30T01:31:15.693Z,10.31
2019-03-30T01:32:15.656Z,10.25
2019-03-30T01:33:15.684Z,10.25
2019-03-30T01:34:15.906Z,10.25
2019-03-30T01:35:16.475Z,10.19
2019-03-30T01:36:15.864Z,10.25
2019-03-30T01:37:15.848Z,10.19
2019-03-30T01:38:15.709Z,10.19
2019-03-30T01:39:16.457Z,10.19
2019-03-30T01:40:15.720Z,10.19
2019-03-30T01:41:15.703Z,10.19
2019-03-30T01:42:15.699Z,10.19
2019-03-30T01:43:15.748Z,10.19
2019-03-30T01:44:15.718Z,10.13
2019-03-30T01:45:15.694Z,10.19
2019-03-30T01:46:15.670Z,10.13
2019-03-30T01:47:15.667Z,10.13
2019-03-30T01:48:15.630Z,10.13
2019-03-30T01:49:15.656Z,10.13
2019-03-30T01:50:18.656Z,10.13
2019-03-30T01:51:15.648Z,10.13
2019-03-30T01:52:15.664Z,10.13
2019-03-30T01:53:15.689Z,10.06
2019-03-30T01:54:15.727Z,10.06
2019-03-30T01:55:15.726Z,10.06
2019-03-30T01:56:15.785Z,10.06
2019-03-30T01:57:15.666Z,10.06
2019-03-30T01:58:15.686Z,10
2019-03-30T01:59:16.723Z,10.06
2019-03-30T02:00:15.621Z,10
2019-03-30T02:01:16.041Z,10
2019-03-30T02:02:15.650Z,10
2019-03-30T02:03:15.607Z,9.94
2019-03-30T02:04:15.653Z,9.94
2019-03-30T02:05:15.612Z,9.94
2019-03-30T02:06:15.612Z,9.88
2019-03-30T02:07:15.645Z,9.88
2019-03-30T02:08:15.688Z,9.88
2019-03-30T02:09:15.716Z,9.81
2019-03-30T02:10:15.721Z,9.81
2019-03-30T02:11:15.665Z,9.81
2019-03-30T02:12:15.586Z,9.75
2019-03-30T02:13:15.663Z,9.81
2019-03-30T02:14:15.665Z,9.75
2019-03-30T02:15:15.602Z,9.81
2019-03-30T02:16:15.580Z,9.81
2019-03-30T02:17:15.735Z,9.75
2019-03-30T02:18:15.596Z,9.75
2019-03-30T02:19:15.605Z,9.75
2019-03-30T02:20:15.611Z,9.69
2019-03-30T02:21:15.609Z,9.69
2019-03-30T02:22:15.646Z,9.69
2019-03-30T02:23:15.713Z,9.75
2019-03-30T02:24:15.568Z,9.69
2019-03-30T02:25:15.597Z,9.69
2019-03-30T02:26:15.626Z,9.63
2019-03-30T02:27:15.602Z,9.63
2019-03-30T02:28:15.584Z,9.63
2019-03-30T02:29:15.617Z,9.63
2019-03-30T02:30:15.570Z,9.56
2019-03-30T02:31:15.657Z,9.56
2019-03-30T02:32:15.601Z,9.56
2019-03-30T02:33:15.696Z,9.56
2019-03-30T02:34:15.579Z,9.56
2019-03-30T02:35:15.618Z,9.5
2019-03-30T02:36:15.791Z,9.5
2019-03-30T02:37:15.600Z,9.5
2019-03-30T02:38:15.586Z,9.44
2019-03-30T02:39:16.919Z,9.44
2019-03-30T02:40:15.593Z,9.44
2019-03-30T02:41:15.637Z,9.44
2019-03-30T02:42:15.577Z,9.44
2019-03-30T02:43:15.608Z,9.38
2019-03-30T02:44:15.614Z,9.38
2019-03-30T02:45:15.656Z,9.31
2019-03-30T02:46:15.662Z,9.31
2019-03-30T02:47:15.553Z,9.31
2019-03-30T02:48:15.584Z,9.31
2019-03-30T02:49:15.607Z,9.25
2019-03-30T02:50:15.620Z,9.31
2019-03-30T02:51:15.622Z,9.25
2019-03-30T02:52:15.648Z,9.19
2019-03-30T02:53:15.582Z,9.25
2019-03-30T02:54:15.550Z,9.19
2019-03-30T02:55:15.581Z,9.19
2019-03-30T02:56:15.568Z,9.13
2019-03-30T02:57:15.558Z,9.19
2019-03-30T02:58:15.605Z,9.06
2019-03-30T02:59:15.661Z,9.06
2019-03-30T03:00:15.614Z,9.06
2019-03-30T03:01:15.629Z,9.06
2019-03-30T03:02:15.622Z,9.06
2019-03-30T03:03:15.738Z,9
2019-03-30T03:04:15.543Z,9
2019-03-30T03:05:15.563Z,9
2019-03-30T03:06:15.586Z,9
2019-03-30T03:07:15.592Z,8.94
2019-03-30T03:08:15.558Z,8.94
2019-03-30T03:09:15.644Z,8.88
2019-03-30T03:10:15.579Z,8.94
2019-03-30T03:11:15.685Z,8.94
2019-03-30T03:12:15.612Z,8.88
2019-03-30T03:13:15.553Z,8.88
2019-03-30T03:14:15.554Z,8.81
2019-03-30T03:15:15.533Z,8.81
2019-03-30T03:16:15.552Z,8.81
2019-03-30T03:17:15.582Z,8.81
2019-03-30T03:18:15.545Z,8.75
2019-03-30T03:19:15.510Z,8.75
2019-03-30T03:20:15.614Z,8.75
2019-03-30T03:21:15.591Z,8.69
2019-03-30T03:22:17.424Z,8.69
2019-03-30T03:23:15.644Z,8.63
2019-03-30T03:24:15.516Z,8.63
2019-03-30T03:25:15.546Z,8.63
2019-03-30T03:26:15.543Z,8.56
2019-03-30T03:27:15.518Z,8.56
2019-03-30T03:28:15.559Z,8.5
2019-03-30T03:29:15.563Z,8.5
2019-03-30T03:30:15.589Z,8.5
2019-03-30T03:31:15.665Z,8.5
2019-03-30T03:32:15.590Z,8.44
2019-03-30T03:33:15.746Z,8.44
2019-03-30T03:34:15.598Z,8.38
2019-03-30T03:35:15.519Z,8.31
2019-03-30T03:36:15.791Z,8.38
2019-03-30T03:37:15.592Z,8.31
2019-03-30T03:38:15.609Z,8.38
2019-03-30T03:39:15.560Z,8.38
2019-03-30T03:40:15.529Z,8.31
2019-03-30T03:41:15.595Z,8.31
2019-03-30T03:42:15.619Z,8.25
2019-03-30T03:43:15.559Z,8.19
2019-03-30T03:44:15.529Z,8.19
2019-03-30T03:45:15.662Z,8.13
2019-03-30T03:46:15.547Z,8.19
2019-03-30T03:47:15.497Z,8.19
2019-03-30T03:48:15.510Z,8.13
2019-03-30T03:49:16.782Z,8.13
2019-03-30T03:50:15.520Z,8.06
2019-03-30T03:51:27.078Z,8.13
2019-03-30T03:52:15.496Z,8.06
2019-03-30T03:53:16.011Z,8.06
2019-03-30T03:54:15.446Z,8.06
2019-03-30T03:55:15.553Z,8.06
2019-03-30T03:56:15.563Z,8.06
2019-03-30T03:57:15.481Z,8.06
2019-03-30T03:58:15.558Z,8.06
2019-03-30T03:59:15.600Z,8.06
2019-03-30T04:00:15.513Z,8.06
2019-03-30T04:01:16.378Z,8
2019-03-30T04:02:15.529Z,8.06
2019-03-30T04:03:15.508Z,8.06
2019-03-30T04:04:15.522Z,8
2019-03-30T04:05:16.178Z,8
2019-03-30T04:06:15.487Z,7.94
2019-03-30T04:07:15.531Z,7.94
2019-03-30T04:08:15.513Z,8
2019-03-30T04:09:15.442Z,8
2019-03-30T04:10:15.457Z,7.94
2019-03-30T04:11:15.589Z,7.87
2019-03-30T04:12:15.501Z,7.94
2019-03-30T04:13:15.503Z,7.87
2019-03-30T04:14:15.469Z,7.87
2019-03-30T04:15:15.536Z,7.94
2019-03-30T04:16:15.558Z,7.87
2019-03-30T04:17:15.466Z,7.87
2019-03-30T04:18:15.494Z,7.81
2019-03-30T04:19:15.460Z,7.81
2019-03-30T04:20:15.493Z,7.87
2019-03-30T04:21:15.446Z,7.81
2019-03-30T04:22:15.497Z,7.81
2019-03-30T04:23:15.549Z,7.81
2019-03-30T04:24:15.473Z,7.75
2019-03-30T04:25:15.476Z,7.75
2019-03-30T04:26:15.475Z,7.75
2019-03-30T04:27:15.613Z,7.81
2019-03-30T04:28:15.538Z,7.75
2019-03-30T04:29:15.527Z,7.75
2019-03-30T04:30:15.510Z,7.75
2019-03-30T04:31:15.470Z,7.75
2019-03-30T04:32:15.425Z,7.75
2019-03-30T04:33:15.442Z,7.75
2019-03-30T04:34:15.458Z,7.69
2019-03-30T04:35:15.532Z,7.75
2019-03-30T04:36:15.476Z,7.69
2019-03-30T04:37:15.523Z,7.69
2019-03-30T04:38:15.456Z,7.69
2019-03-30T04:39:15.476Z,7.69
2019-03-30T04:40:15.471Z,7.69
2019-03-30T04:41:15.396Z,7.62
2019-03-30T04:42:15.436Z,7.62
2019-03-30T04:43:15.447Z,7.62
2019-03-30T04:44:17.276Z,7.56
2019-03-30T04:45:15.472Z,7.56
2019-03-30T04:46:15.455Z,7.56
2019-03-30T04:47:15.406Z,7.56
2019-03-30T04:48:15.439Z,7.5
2019-03-30T04:49:15.893Z,7.5
2019-03-30T04:50:15.506Z,7.5
2019-03-30T04:51:15.397Z,7.5
2019-03-30T04:52:15.455Z,7.5
2019-03-30T04:53:15.413Z,7.5
2019-03-30T04:54:15.369Z,7.5
2019-03-30T04:55:15.420Z,7.5
2019-03-30T04:56:15.429Z,7.44
2019-03-30T04:57:15.448Z,7.44
2019-03-30T04:58:15.443Z,7.44
2019-03-30T04:59:15.422Z,7.37
2019-03-30T05:00:15.473Z,7.44
2019-03-30T05:01:15.470Z,7.44
2019-03-30T05:02:15.488Z,7.44
2019-03-30T05:03:15.375Z,7.44
2019-03-30T05:04:15.533Z,7.37
2019-03-30T05:05:15.389Z,7.44
2019-03-30T05:06:15.536Z,7.44
2019-03-30T05:07:15.445Z,7.37
2019-03-30T05:08:15.366Z,7.37
2019-03-30T05:09:15.398Z,7.37
2019-03-30T05:10:15.425Z,7.37
2019-03-30T05:11:15.878Z,7.44
2019-03-30T05:12:15.432Z,7.37
2019-03-30T05:13:15.404Z,7.44
2019-03-30T05:14:15.444Z,7.37
2019-03-30T05:15:15.363Z,7.37
2019-03-30T05:16:15.369Z,7.44
2019-03-30T05:17:15.377Z,7.37
2019-03-30T05:18:15.508Z,7.37
2019-03-30T05:19:15.411Z,7.37
2019-03-30T05:20:15.417Z,7.31
2019-03-30T05:21:15.335Z,7.31
2019-03-30T05:22:17.151Z,7.31
2019-03-30T05:23:15.409Z,7.31
2019-03-30T05:24:15.416Z,7.31
2019-03-30T05:25:15.343Z,7.31
2019-03-30T05:26:15.349Z,7.25
2019-03-30T05:27:15.367Z,7.25
2019-03-30T05:28:15.356Z,7.19
2019-03-30T05:29:15.344Z,7.19
2019-03-30T05:30:15.405Z,7.12
2019-03-30T05:31:15.399Z,7.19
2019-03-30T05:32:15.508Z,7.19
2019-03-30T05:33:15.322Z,7.19
2019-03-30T05:34:15.321Z,7.19
2019-03-30T05:35:15.401Z,7.12
2019-03-30T05:36:15.413Z,7.12
2019-03-30T05:37:15.380Z,7.06
2019-03-30T05:38:15.348Z,7.12
2019-03-30T05:39:15.404Z,7.12
2019-03-30T05:40:15.328Z,7.06
2019-03-30T05:41:15.322Z,7.12
2019-03-30T05:42:15.321Z,7.06
2019-03-30T05:43:15.388Z,7.06
2019-03-30T05:44:15.327Z,7.12
2019-03-30T05:45:16.771Z,7.12
2019-03-30T05:46:15.309Z,7.12
2019-03-30T05:47:15.352Z,7.12
2019-03-30T05:48:15.420Z,7.12
2019-03-30T05:49:15.318Z,7.12
2019-03-30T05:50:15.343Z,7.12
2019-03-30T05:51:15.295Z,7.12
2019-03-30T05:52:27.271Z,7.19
2019-03-30T05:53:15.501Z,7.19
2019-03-30T05:54:15.847Z,7.19
2019-03-30T05:55:15.403Z,7.19
2019-03-30T05:56:15.316Z,7.19
2019-03-30T05:57:15.343Z,7.12
2019-03-30T05:58:15.330Z,7.19
2019-03-30T05:59:15.303Z,7.19
2019-03-30T06:00:15.329Z,7.19
2019-03-30T06:01:15.335Z,7.19
2019-03-30T06:02:15.326Z,7.19
2019-03-30T06:03:15.299Z,7.19
2019-03-30T06:04:15.362Z,7.25
2019-03-30T06:05:15.361Z,7.25
2019-03-30T06:06:15.334Z,7.25
2019-03-30T06:07:15.297Z,7.25
2019-03-30T06:08:15.329Z,7.25
2019-03-30T06:09:15.311Z,7.31
2019-03-30T06:10:15.274Z,7.31
2019-03-30T06:11:15.298Z,7.31
2019-03-30T06:12:15.294Z,7.31
2019-03-30T06:13:15.280Z,7.25
2019-03-30T06:14:15.442Z,7.25
2019-03-30T06:15:15.270Z,7.25
2019-03-30T06:16:15.351Z,7.31
2019-03-30T06:17:15.336Z,7.31
2019-03-30T06:18:15.290Z,7.31
2019-03-30T06:19:15.436Z,7.37
2019-03-30T06:20:15.278Z,7.37
2019-03-30T06:21:15.430Z,7.37
2019-03-30T06:22:15.612Z,7.44
2019-03-30T06:23:15.300Z,7.44
2019-03-30T06:24:15.310Z,7.44
2019-03-30T06:25:15.337Z,7.44
2019-03-30T06:26:15.270Z,7.5
2019-03-30T06:27:15.299Z,7.56
2019-03-30T06:28:15.254Z,7.5
2019-03-30T06:29:15.258Z,7.56
2019-03-30T06:30:15.257Z,7.56
2019-03-30T06:31:15.269Z,7.56
2019-03-30T06:32:15.371Z,7.56
2019-03-30T06:33:15.401Z,7.62
2019-03-30T06:34:15.280Z,7.69
2019-03-30T06:35:15.282Z,7.69
2019-03-30T06:36:15.303Z,7.69
2019-03-30T06:37:15.800Z,7.75
2019-03-30T06:38:15.278Z,7.81
2019-03-30T06:39:15.303Z,7.81
2019-03-30T06:40:15.327Z,7.81
2019-03-30T06:41:15.282Z,7.87
2019-03-30T06:42:15.273Z,7.94
2019-03-30T06:43:15.276Z,7.94
2019-03-30T06:44:15.436Z,7.94
2019-03-30T06:45:15.240Z,8
2019-03-30T06:46:15.355Z,8
2019-03-30T06:47:15.282Z,8.06
2019-03-30T06:48:15.331Z,8.06
2019-03-30T06:49:15.268Z,8.13
2019-03-30T06:50:15.271Z,8.13
2019-03-30T06:51:15.277Z,8.19
2019-03-30T06:52:15.253Z,8.25
2019-03-30T06:53:17.734Z,8.25
2019-03-30T06:54:15.301Z,8.31
2019-03-30T06:55:15.355Z,8.31
2019-03-30T06:56:15.302Z,8.38
2019-03-30T06:57:15.377Z,8.38
2019-03-30T06:58:15.570Z,8.44
2019-03-30T06:59:15.297Z,8.44
2019-03-30T07:00:15.330Z,8.5
2019-03-30T07:01:15.436Z,8.56
2019-03-30T07:02:15.455Z,8.63
2019-03-30T07:03:15.302Z,8.63
2019-03-30T07:04:15.218Z,8.63
2019-03-30T07:05:15.205Z,8.75
2019-03-30T07:06:15.237Z,8.75
2019-03-30T07:07:15.299Z,8.81
2019-03-30T07:08:15.360Z,8.81
2019-03-30T07:09:15.250Z,8.88
2019-03-30T07:10:15.369Z,8.94
2019-03-30T07:11:21.783Z,8.94
2019-03-30T07:12:15.197Z,9
2019-03-30T07:13:15.262Z,9.06
2019-03-30T07:14:15.258Z,9.06
2019-03-30T07:15:15.223Z,9.13
2019-03-30T07:16:15.197Z,9.19
2019-03-30T07:17:15.328Z,9.19
2019-03-30T07:18:15.233Z,9.25
2019-03-30T07:19:15.205Z,9.25
2019-03-30T07:20:15.453Z,9.31
2019-03-30T07:21:15.188Z,9.38
2019-03-30T07:22:15.224Z,9.38
2019-03-30T07:23:15.255Z,9.44
2019-03-30T07:24:15.243Z,9.5
2019-03-30T07:25:15.269Z,9.5
2019-03-30T07:26:15.247Z,9.56
2019-03-30T07:27:15.327Z,9.63
2019-03-30T07:28:15.261Z,9.69
2019-03-30T07:29:15.293Z,9.69
2019-03-30T07:30:15.525Z,9.75
2019-03-30T07:31:15.249Z,9.81
2019-03-30T07:32:15.317Z,9.88
2019-03-30T07:33:17.487Z,9.94
2019-03-30T07:34:15.206Z,10
2019-03-30T07:35:15.233Z,10
2019-03-30T07:36:15.155Z,10.06
2019-03-30T07:37:15.277Z,10.06
2019-03-30T07:38:15.398Z,10.13
2019-03-30T07:39:15.281Z,10.19
2019-03-30T07:40:15.191Z,10.19
2019-03-30T07:41:15.238Z,10.25
2019-03-30T07:42:15.301Z,10.31
2019-03-30T07:43:15.286Z,10.31
2019-03-30T07:44:15.316Z,10.38
2019-03-30T07:45:15.178Z,10.38
2019-03-30T07:46:15.157Z,10.38
2019-03-30T07:47:15.248Z,10.44
2019-03-30T07:48:15.244Z,10.44
2019-03-30T07:49:15.240Z,10.5
2019-03-30T07:50:16.343Z,10.5
2019-03-30T07:51:15.270Z,10.56
2019-03-30T07:52:15.306Z,10.63
2019-03-30T07:53:27.412Z,10.63
2019-03-30T07:54:15.293Z,10.69
2019-03-30T07:55:15.208Z,10.69
2019-03-30T07:56:15.153Z,10.69
2019-03-30T07:57:17.912Z,10.75
2019-03-30T07:58:15.244Z,10.75
2019-03-30T07:59:15.198Z,10.81
2019-03-30T08:00:18.405Z,10.81
2019-03-30T08:01:15.239Z,10.81
2019-03-30T08:02:15.239Z,10.88
2019-03-30T08:03:15.473Z,10.94
2019-03-30T08:04:15.178Z,10.94
2019-03-30T08:05:15.156Z,11
2019-03-30T08:06:15.148Z,11
2019-03-30T08:07:15.297Z,11.06
2019-03-30T08:08:15.146Z,11.06
2019-03-30T08:09:15.124Z,11.06
2019-03-30T08:10:15.169Z,11.19
2019-03-30T08:11:15.224Z,11.19
2019-03-30T08:12:15.154Z,11.19
2019-03-30T08:13:15.263Z,11.25
2019-03-30T08:14:15.167Z,11.25
2019-03-30T08:15:15.143Z,11.31
2019-03-30T08:16:15.172Z,11.38
2019-03-30T08:17:15.233Z,11.38
2019-03-30T08:18:15.102Z,11.44
2019-03-30T08:19:15.117Z,11.44
2019-03-30T08:20:15.142Z,11.5
2019-03-30T08:21:15.103Z,11.56
2019-03-30T08:22:15.144Z,11.56
2019-03-30T08:23:15.096Z,11.63
2019-03-30T08:24:15.144Z,11.63
2019-03-30T08:25:15.375Z,11.69
2019-03-30T08:26:15.109Z,11.75
2019-03-30T08:27:15.130Z,11.81
2019-03-30T08:28:15.118Z,11.81
2019-03-30T08:29:15.100Z,11.81
2019-03-30T08:30:15.078Z,11.88
2019-03-30T08:31:15.113Z,11.94
2019-03-30T08:32:15.073Z,11.94
2019-03-30T08:33:15.133Z,11.94
2019-03-30T08:34:15.267Z,12
2019-03-30T08:35:15.122Z,12.06
2019-03-30T08:36:15.111Z,12.06
2019-03-30T08:37:15.182Z,12.13
2019-03-30T08:38:15.153Z,12.13
2019-03-30T08:39:15.158Z,12.13
2019-03-30T08:40:15.170Z,12.19
2019-03-30T08:41:15.196Z,12.19
2019-03-30T08:42:15.102Z,12.25
2019-03-30T08:43:15.156Z,12.31
2019-03-30T08:44:15.112Z,12.31
2019-03-30T08:45:15.096Z,12.37
2019-03-30T08:46:15.184Z,12.37
2019-03-30T08:47:15.167Z,12.37
2019-03-30T08:48:16.606Z,12.37
2019-03-30T08:49:15.123Z,12.37
2019-03-30T08:50:15.058Z,12.44
2019-03-30T08:51:15.191Z,12.5
2019-03-30T08:52:15.072Z,12.5
2019-03-30T08:53:15.081Z,12.56
2019-03-30T08:54:17.727Z,12.56
2019-03-30T08:55:15.107Z,12.56
2019-03-30T08:56:15.090Z,12.69
2019-03-30T08:57:15.048Z,12.75
2019-03-30T08:58:15.191Z,12.81
2019-03-30T08:59:15.047Z,12.81
2019-03-30T09:00:15.076Z,12.88
2019-03-30T09:01:15.137Z,12.88
2019-03-30T09:02:15.086Z,12.94
2019-03-30T09:03:15.129Z,12.94
2019-03-30T09:04:15.065Z,13
2019-03-30T09:05:15.083Z,13
2019-03-30T09:06:15.139Z,13
2019-03-30T09:07:15.176Z,13.06
2019-03-30T09:08:15.557Z,13.06
2019-03-30T09:09:15.078Z,13.06
2019-03-30T09:10:15.067Z,13.13
2019-03-30T09:11:15.071Z,13.19
2019-03-30T09:12:15.073Z,13.19
2019-03-30T09:13:15.388Z,13.25
2019-03-30T09:14:15.043Z,13.25
2019-03-30T09:15:15.040Z,13.31
2019-03-30T09:16:15.036Z,13.31
2019-03-30T09:17:15.163Z,13.31
2019-03-30T09:18:15.530Z,13.38
2019-03-30T09:19:15.044Z,13.38
2019-03-30T09:20:15.046Z,13.44
2019-03-30T09:21:15.048Z,13.5
2019-03-30T09:22:15.032Z,13.5
2019-03-30T09:23:15.049Z,13.56
2019-03-30T09:24:15.074Z,13.62
2019-03-30T09:25:15.931Z,13.62
2019-03-30T09:26:17.155Z,13.62
2019-03-30T09:27:15.142Z,13.69
2019-03-30T09:28:15.026Z,13.75
2019-03-30T09:29:15.411Z,13.81
2019-03-30T09:30:15.050Z,13.81
2019-03-30T09:31:15.101Z,13.88
2019-03-30T09:32:15.516Z,13.88
2019-03-30T09:33:15.104Z,13.88
2019-03-30T09:34:15.162Z,13.94
2019-03-30T09:35:15.174Z,13.88
2019-03-30T09:36:15.033Z,13.88
2019-03-30T09:37:15.056Z,13.94
2019-03-30T09:38:15.621Z,13.88
2019-03-30T09:39:16.085Z,13.94
2019-03-30T09:40:15.031Z,14
2019-03-30T09:41:15.094Z,14
2019-03-30T09:42:15.172Z,14.06
2019-03-30T09:43:15.224Z,14.06
2019-03-30T09:44:15.045Z,14.13
2019-03-30T09:45:15.031Z,14.19
2019-03-30T09:46:15.011Z,14.25
2019-03-30T09:47:15.101Z,14.25
2019-03-30T09:48:15.094Z,14.38
2019-03-30T09:49:15.012Z,14.38
2019-03-30T09:50:15.044Z,14.38
2019-03-30T09:51:15.106Z,14.5
2019-03-30T09:52:14.991Z,14.56
2019-03-30T09:53:15.067Z,14.63
2019-03-30T09:54:24.523Z,14.63
2019-03-30T09:55:15.002Z,14.69
2019-03-30T09:56:14.968Z,14.69
2019-03-30T09:57:14.973Z,14.69
2019-03-30T09:58:15.108Z,14.69
2019-03-30T09:59:14.942Z,14.81
2019-03-30T10:00:14.986Z,14.87
2019-03-30T10:01:15.100Z,14.87
2019-03-30T10:02:14.950Z,15
2019-03-30T10:03:14.959Z,15.06
2019-03-30T10:04:15.019Z,15.13
2019-03-30T10:05:15.049Z,15.13
2019-03-30T10:06:14.959Z,15.13
2019-03-30T10:07:15.143Z,15.19
2019-03-30T10:08:14.998Z,15.25
2019-03-30T10:09:15.081Z,15.25
2019-03-30T10:10:14.958Z,15.31
2019-03-30T10:11:15.044Z,15.31
2019-03-30T10:12:16.205Z,15.31
2019-03-30T10:13:15.028Z,15.31
2019-03-30T10:14:15.019Z,15.38
2019-03-30T10:15:15.050Z,15.38
2019-03-30T10:16:14.984Z,15.44
2019-03-30T10:17:15.136Z,15.44
2019-03-30T10:18:15.061Z,15.5
2019-03-30T10:19:14.973Z,15.56
2019-03-30T10:20:14.976Z,15.56
2019-03-30T10:21:14.968Z,15.56
2019-03-30T10:22:14.986Z,15.63
2019-03-30T10:23:14.959Z,15.69
2019-03-30T10:24:15.041Z,15.75
2019-03-30T10:25:14.977Z,15.75
2019-03-30T10:26:15.026Z,15.75
2019-03-30T10:27:15.024Z,15.81
2019-03-30T10:28:14.984Z,15.88
2019-03-30T10:29:14.948Z,15.94
2019-03-30T10:30:14.966Z,15.94
2019-03-30T10:31:14.936Z,16
2019-03-30T10:32:15.047Z,16
2019-03-30T10:33:15.056Z,16
2019-03-30T10:34:14.982Z,16
2019-03-30T10:35:15.895Z,15.94
2019-03-30T10:36:14.974Z,16
2019-03-30T10:37:14.952Z,16
2019-03-30T10:38:14.962Z,16
2019-03-30T10:39:14.913Z,16
2019-03-30T10:40:14.951Z,16
2019-03-30T10:41:14.969Z,15.94
2019-03-30T10:42:14.885Z,15.94
2019-03-30T10:43:14.931Z,16
2019-03-30T10:44:15.079Z,16
2019-03-30T10:45:14.953Z,16.06
2019-03-30T10:46:14.886Z,16.06
2019-03-30T10:47:16.709Z,16.12
2019-03-30T10:48:14.929Z,16.12
2019-03-30T10:49:15.091Z,16.12
2019-03-30T10:50:14.887Z,16.25
2019-03-30T10:51:14.953Z,16.25
2019-03-30T10:52:14.946Z,16.31
2019-03-30T10:53:14.913Z,16.37
2019-03-30T10:54:14.913Z,16.37
2019-03-30T10:55:15.018Z,16.37
2019-03-30T10:56:15.136Z,16.44
2019-03-30T10:57:14.939Z,16.44
2019-03-30T10:58:14.867Z,16.5
2019-03-30T10:59:14.861Z,16.62
2019-03-30T11:00:14.901Z,16.62
2019-03-30T11:01:14.876Z,16.69
2019-03-30T11:02:14.868Z,16.75
2019-03-30T11:03:14.923Z,16.81
2019-03-30T11:04:14.917Z,16.81
2019-03-30T11:05:14.930Z,16.87
2019-03-30T11:06:14.890Z,16.94
2019-03-30T11:07:14.887Z,17
2019-03-30T11:08:14.855Z,17.06
2019-03-30T11:09:14.877Z,17
2019-03-30T11:10:14.887Z,17.12
2019-03-30T11:11:14.952Z,17.19
2019-03-30T11:12:14.858Z,17.25
2019-03-30T11:13:14.958Z,17.25
2019-03-30T11:14:14.886Z,17.25
2019-03-30T11:15:14.894Z,17.25
2019-03-30T11:16:14.877Z,17.31
2019-03-30T11:17:14.887Z,17.31
2019-03-30T11:18:14.953Z,17.37
2019-03-30T11:19:14.877Z,17.37
2019-03-30T11:20:15.885Z,17.37
2019-03-30T11:21:14.923Z,17.37
2019-03-30T11:22:14.923Z,17.37
2019-03-30T11:23:14.851Z,17.37
2019-03-30T11:24:14.862Z,17.31
2019-03-30T11:25:14.845Z,17.37
2019-03-30T11:26:14.977Z,17.44
2019-03-30T11:27:14.928Z,17.5
2019-03-30T11:28:14.829Z,17.5
2019-03-30T11:29:14.889Z,17.56
2019-03-30T11:30:15.011Z,17.62
2019-03-30T11:31:14.846Z,17.62
2019-03-30T11:32:14.837Z,17.62
2019-03-30T11:33:14.909Z,17.69
2019-03-30T11:34:14.927Z,17.81
2019-03-30T11:35:14.897Z,17.81
2019-03-30T11:36:19.015Z,17.87
2019-03-30T11:37:14.843Z,17.94
2019-03-30T11:38:15.029Z,18
2019-03-30T11:39:14.840Z,18
2019-03-30T11:40:14.849Z,18.12
2019-03-30T11:41:14.897Z,18.12
2019-03-30T11:42:14.834Z,18.19
2019-03-30T11:43:14.917Z,18.12
2019-03-30T11:44:14.894Z,18.19
2019-03-30T11:45:14.846Z,18.25
2019-03-30T11:46:14.950Z,18.25
2019-03-30T11:47:14.817Z,18.31
2019-03-30T11:48:14.873Z,18.37
2019-03-30T11:49:14.910Z,18.31
2019-03-30T11:50:14.859Z,18.37
2019-03-30T11:51:14.873Z,18.44
2019-03-30T11:52:14.871Z,18.56
2019-03-30T11:53:14.808Z,18.56
2019-03-30T11:54:14.796Z,18.62
2019-03-30T11:55:22.768Z,18.69
2019-03-30T11:56:14.848Z,18.69
2019-03-30T11:57:14.845Z,18.75
2019-03-30T11:58:14.812Z,18.75
2019-03-30T11:59:14.786Z,18.81
2019-03-30T12:00:14.872Z,18.87
2019-03-30T12:01:14.890Z,18.87
2019-03-30T12:02:28.681Z,18.87
2019-03-30T12:03:14.870Z,18.94
2019-03-30T12:04:14.870Z,18.94
2019-03-30T12:05:14.831Z,18.87
2019-03-30T12:06:14.844Z,18.87
2019-03-30T12:07:14.828Z,18.87
2019-03-30T12:08:14.903Z,18.87
2019-03-30T12:09:14.841Z,18.87
2019-03-30T12:10:14.812Z,18.87
2019-03-30T12:11:14.825Z,18.94
2019-03-30T12:12:14.770Z,18.94
2019-03-30T12:13:14.832Z,18.94
2019-03-30T12:14:14.835Z,18.81
2019-03-30T12:15:14.941Z,18.87
2019-03-30T12:16:14.826Z,18.94
2019-03-30T12:17:14.980Z,19
2019-03-30T12:18:14.901Z,19.06
2019-03-30T12:19:14.859Z,19.12
2019-03-30T12:20:14.813Z,19.12
2019-03-30T12:21:14.857Z,19.19
2019-03-30T12:22:15.226Z,19.25
2019-03-30T12:23:15.144Z,19.25
2019-03-30T12:24:14.800Z,19.37
2019-03-30T12:25:14.736Z,19.31
2019-03-30T12:26:14.781Z,19.31
2019-03-30T12:27:15.927Z,19.37
2019-03-30T12:28:14.790Z,19.44
2019-03-30T12:29:14.787Z,19.37
2019-03-30T12:30:14.790Z,19.44
2019-03-30T12:31:14.929Z,19.37
2019-03-30T12:32:14.802Z,19.44
2019-03-30T12:33:14.811Z,19.5
2019-03-30T12:34:14.878Z,19.56
2019-03-30T12:35:14.784Z,19.5
2019-03-30T12:36:14.872Z,19.62
2019-03-30T12:37:14.743Z,19.69
2019-03-30T12:38:14.743Z,19.62
2019-03-30T12:39:14.740Z,19.69
2019-03-30T12:40:14.791Z,19.75
2019-03-30T12:41:14.793Z,19.81
2019-03-30T12:42:14.949Z,19.75
2019-03-30T12:43:14.793Z,19.81
2019-03-30T12:44:14.954Z,19.62
2019-03-30T12:45:15.161Z,19.69
2019-03-30T12:46:15.090Z,19.75
2019-03-30T12:47:14.779Z,19.75
2019-03-30T12:48:14.764Z,19.75
2019-03-30T12:49:15.018Z,19.75
2019-03-30T12:50:14.781Z,19.75
2019-03-30T12:51:14.788Z,19.81
2019-03-30T12:52:14.839Z,19.87
2019-03-30T12:53:14.725Z,19.94
2019-03-30T12:54:14.786Z,19.87
2019-03-30T12:55:14.857Z,19.94
2019-03-30T12:56:14.779Z,19.94
2019-03-30T12:57:14.788Z,19.94
2019-03-30T12:58:14.985Z,19.87
2019-03-30T12:59:14.862Z,19.87
2019-03-30T13:00:14.769Z,19.94
2019-03-30T13:01:15.951Z,20.06
2019-03-30T13:02:14.758Z,20.12
2019-03-30T13:03:14.855Z,20.25
2019-03-30T13:04:14.765Z,20.37
2019-03-30T13:05:14.773Z,20.56
2019-03-30T13:06:14.742Z,20.69
2019-03-30T13:07:14.846Z,20.69
2019-03-30T13:08:14.749Z,20.81
2019-03-30T13:09:14.724Z,20.81